sensor_id;sensor_type;location;lat;lon;timestamp;temperature;humidity
774;DHT22;370;48.810;9.150;2023-01-16T00:01:18;2.90;7.70
774;DHT22;370;48.810;9.150;2023-01-16T00:03:45;3.00;7.00
774;DHT22;370;48.810;9.150;2023-01-16T00:06:12;3.20;6.40
774;DHT22;370;48.810;9.150;2023-01-16T00:08:40;3.30;5.70
774;DHT22;370;48.810;9.150;2023-01-16T00:11:09;3.30;5.00
774;DHT22;370;48.810;9.150;2023-01-16T00:13:36;3.50;4.50
774;DHT22;370;48.810;9.150;2023-01-16T00:16:04;3.60;3.70
774;DHT22;370;48.810;9.150;2023-01-16T00:18:31;3.70;2.70
774;DHT22;370;48.810;9.150;2023-01-16T00:20:58;3.80;2.80
774;DHT22;370;48.810;9.150;2023-01-16T00:23:24;3.90;1.90
774;DHT22;370;48.810;9.150;2023-01-16T00:25:51;3.90;1.90
774;DHT22;370;48.810;9.150;2023-01-16T00:28:19;3.90;1.90
774;DHT22;370;48.810;9.150;2023-01-16T00:30:46;3.90;1.90
774;DHT22;370;48.810;9.150;2023-01-16T00:33:13;3.90;1.90
774;DHT22;370;48.810;9.150;2023-01-16T00:35:40;3.90;1.90
774;DHT22;370;48.810;9.150;2023-01-16T00:38:07;3.80;1.80
774;DHT22;370;48.810;9.150;2023-01-16T00:40:34;3.90;1.90
774;DHT22;370;48.810;9.150;2023-01-16T00:43:00;3.90;1.90
774;DHT22;370;48.810;9.150;2023-01-16T00:45:29;3.90;1.90
774;DHT22;370;48.810;9.150;2023-01-16T00:47:55;4.00;1.10
774;DHT22;370;48.810;9.150;2023-01-16T00:50:24;4.00;1.10
774;DHT22;370;48.810;9.150;2023-01-16T00:52:50;4.00;1.10
774;DHT22;370;48.810;9.150;2023-01-16T00:55:17;4.00;1.00
774;DHT22;370;48.810;9.150;2023-01-16T00:57:44;3.90;1.00
774;DHT22;370;48.810;9.150;2023-01-16T01:00:11;3.90;1.30
774;DHT22;370;48.810;9.150;2023-01-16T01:02:39;3.80;1.30
774;DHT22;370;48.810;9.150;2023-01-16T01:05:07;3.80;1.50
774;DHT22;370;48.810;9.150;2023-01-16T01:07:34;3.70;1.70
774;DHT22;370;48.810;9.150;2023-01-16T01:10:00;3.70;1.70
774;DHT22;370;48.810;9.150;2023-01-16T01:12:27;3.60;1.70
774;DHT22;370;48.810;9.150;2023-01-16T01:14:54;3.50;1.60
774;DHT22;370;48.810;9.150;2023-01-16T01:17:21;3.50;1.60
774;DHT22;370;48.810;9.150;2023-01-16T01:19:49;3.40;1.60
774;DHT22;370;48.810;9.150;2023-01-16T01:22:16;3.40;1.60
774;DHT22;370;48.810;9.150;2023-01-16T01:24:43;3.40;2.00
774;DHT22;370;48.810;9.150;2023-01-16T01:27:13;3.40;2.20
774;DHT22;370;48.810;9.150;2023-01-16T01:29:39;3.40;2.40
774;DHT22;370;48.810;9.150;2023-01-16T01:32:06;3.30;2.40
774;DHT22;370;48.810;9.150;2023-01-16T01:34:33;3.30;2.90
774;DHT22;370;48.810;9.150;2023-01-16T01:37:01;3.30;3.00
774;DHT22;370;48.810;9.150;2023-01-16T01:39:28;3.30;2.70
774;DHT22;370;48.810;9.150;2023-01-16T01:41:55;3.30;2.60
774;DHT22;370;48.810;9.150;2023-01-16T01:44:53;3.30;2.70
774;DHT22;370;48.810;9.150;2023-01-16T01:47:23;3.20;3.10
774;DHT22;370;48.810;9.150;2023-01-16T01:49:53;3.20;3.20
774;DHT22;370;48.810;9.150;2023-01-16T01:52:23;3.20;3.20
774;DHT22;370;48.810;9.150;2023-01-16T01:54:53;3.20;3.00
774;DHT22;370;48.810;9.150;2023-01-16T01:57:26;3.20;3.10
774;DHT22;370;48.810;9.150;2023-01-16T01:59:56;3.20;3.30
774;DHT22;370;48.810;9.150;2023-01-16T02:02:24;3.20;3.50
774;DHT22;370;48.810;9.150;2023-01-16T02:04:53;3.10;3.60
774;DHT22;370;48.810;9.150;2023-01-16T02:07:25;3.10;3.90
774;DHT22;370;48.810;9.150;2023-01-16T02:09:56;3.10;4.20
774;DHT22;370;48.810;9.150;2023-01-16T02:12:26;3.10;4.00
774;DHT22;370;48.810;9.150;2023-01-16T02:14:54;3.10;3.90
774;DHT22;370;48.810;9.150;2023-01-16T02:17:22;3.10;3.90
774;DHT22;370;48.810;9.150;2023-01-16T02:20:16;3.10;3.90
774;DHT22;370;48.810;9.150;2023-01-16T02:23:28;3.10;4.50
774;DHT22;370;48.810;9.150;2023-01-16T02:26:32;3.00;4.20
774;DHT22;370;48.810;9.150;2023-01-16T02:29:27;3.00;4.90
774;DHT22;370;48.810;9.150;2023-01-16T02:32:09;3.00;5.20
774;DHT22;370;48.810;9.150;2023-01-16T02:34:51;3.00;4.60
774;DHT22;370;48.810;9.150;2023-01-16T02:37:28;2.90;5.00
774;DHT22;370;48.810;9.150;2023-01-16T02:40:07;2.90;5.10
774;DHT22;370;48.810;9.150;2023-01-16T02:42:43;2.90;5.10
774;DHT22;370;48.810;9.150;2023-01-16T02:45:16;2.90;5.30
774;DHT22;370;48.810;9.150;2023-01-16T02:47:53;2.90;4.90
774;DHT22;370;48.810;9.150;2023-01-16T02:50:25;2.90;5.20
774;DHT22;370;48.810;9.150;2023-01-16T02:52:57;2.90;5.50
774;DHT22;370;48.810;9.150;2023-01-16T02:55:30;2.90;5.20
774;DHT22;370;48.810;9.150;2023-01-16T02:58:00;2.90;5.10
774;DHT22;370;48.810;9.150;2023-01-16T03:00:28;2.90;5.10
774;DHT22;370;48.810;9.150;2023-01-16T03:02:58;3.00;4.70
774;DHT22;370;48.810;9.150;2023-01-16T03:05:26;3.00;4.70
774;DHT22;370;48.810;9.150;2023-01-16T03:08:20;3.00;4.80
774;DHT22;370;48.810;9.150;2023-01-16T03:11:11;3.00;5.10
774;DHT22;370;48.810;9.150;2023-01-16T03:13:50;3.00;5.30
774;DHT22;370;48.810;9.150;2023-01-16T03:16:26;2.90;5.50
774;DHT22;370;48.810;9.150;2023-01-16T03:19:12;3.00;4.90
774;DHT22;370;48.810;9.150;2023-01-16T03:21:45;3.00;4.70
774;DHT22;370;48.810;9.150;2023-01-16T03:24:27;3.10;4.90
774;DHT22;370;48.810;9.150;2023-01-16T03:26:58;3.20;4.60
774;DHT22;370;48.810;9.150;2023-01-16T03:29:32;3.10;4.10
774;DHT22;370;48.810;9.150;2023-01-16T03:32:06;3.10;5.00
774;DHT22;370;48.810;9.150;2023-01-16T03:34:40;3.00;4.50
774;DHT22;370;48.810;9.150;2023-01-16T03:37:12;3.00;4.50
774;DHT22;370;48.810;9.150;2023-01-16T03:39:42;3.00;4.90
774;DHT22;370;48.810;9.150;2023-01-16T03:42:15;3.00;4.70
774;DHT22;370;48.810;9.150;2023-01-16T03:44:46;3.00;4.80
774;DHT22;370;48.810;9.150;2023-01-16T03:47:19;3.00;4.60
774;DHT22;370;48.810;9.150;2023-01-16T03:49:53;2.90;4.60
774;DHT22;370;48.810;9.150;2023-01-16T03:52:23;2.90;4.70
774;DHT22;370;48.810;9.150;2023-01-16T03:54:57;2.90;4.80
774;DHT22;370;48.810;9.150;2023-01-16T03:57:29;2.90;5.00
774;DHT22;370;48.810;9.150;2023-01-16T03:59:59;2.70;5.00
774;DHT22;370;48.810;9.150;2023-01-16T04:02:32;2.80;5.40
774;DHT22;370;48.810;9.150;2023-01-16T04:05:09;2.70;5.10
774;DHT22;370;48.810;9.150;2023-01-16T04:07:44;2.70;5.50
774;DHT22;370;48.810;9.150;2023-01-16T04:10:16;2.60;6.20
774;DHT22;370;48.810;9.150;2023-01-16T04:12:47;2.60;6.30
774;DHT22;370;48.810;9.150;2023-01-16T04:15:16;2.50;6.30
774;DHT22;370;48.810;9.150;2023-01-16T04:17:44;2.50;6.50
774;DHT22;370;48.810;9.150;2023-01-16T04:20:13;2.50;6.60
774;DHT22;370;48.810;9.150;2023-01-16T04:22:40;2.40;7.40
774;DHT22;370;48.810;9.150;2023-01-16T04:25:08;2.30;7.70
774;DHT22;370;48.810;9.150;2023-01-16T04:27:35;2.20;8.90
774;DHT22;370;48.810;9.150;2023-01-16T04:30:03;2.20;8.80
774;DHT22;370;48.810;9.150;2023-01-16T04:32:30;2.20;8.80
774;DHT22;370;48.810;9.150;2023-01-16T04:34:57;2.20;8.70
774;DHT22;370;48.810;9.150;2023-01-16T04:37:25;2.10;9.50
774;DHT22;370;48.810;9.150;2023-01-16T04:39:52;2.10;9.50
774;DHT22;370;48.810;9.150;2023-01-16T04:42:19;2.00;9.40
774;DHT22;370;48.810;9.150;2023-01-16T04:44:46;1.90;9.80
774;DHT22;370;48.810;9.150;2023-01-16T04:47:12;1.80;10.20
774;DHT22;370;48.810;9.150;2023-01-16T04:49:39;1.80;11.00
774;DHT22;370;48.810;9.150;2023-01-16T04:52:06;1.80;11.40
774;DHT22;370;48.810;9.150;2023-01-16T04:54:34;1.80;11.70
774;DHT22;370;48.810;9.150;2023-01-16T04:57:01;1.70;12.00
774;DHT22;370;48.810;9.150;2023-01-16T04:59:28;1.60;12.30
774;DHT22;370;48.810;9.150;2023-01-16T05:01:55;1.60;12.70
774;DHT22;370;48.810;9.150;2023-01-16T05:04:22;1.50;13.30
774;DHT22;370;48.810;9.150;2023-01-16T05:06:49;1.50;14.10
774;DHT22;370;48.810;9.150;2023-01-16T05:09:16;1.50;14.60
774;DHT22;370;48.810;9.150;2023-01-16T05:11:44;1.40;15.10
774;DHT22;370;48.810;9.150;2023-01-16T05:14:11;1.40;15.90
774;DHT22;370;48.810;9.150;2023-01-16T05:16:39;1.30;16.40
774;DHT22;370;48.810;9.150;2023-01-16T05:19:07;1.30;17.50
774;DHT22;370;48.810;9.150;2023-01-16T05:21:35;1.20;18.70
774;DHT22;370;48.810;9.150;2023-01-16T05:24:02;1.20;19.90
774;DHT22;370;48.810;9.150;2023-01-16T05:26:29;1.30;20.50
774;DHT22;370;48.810;9.150;2023-01-16T05:28:57;1.30;20.40
774;DHT22;370;48.810;9.150;2023-01-16T05:31:24;1.10;20.50
774;DHT22;370;48.810;9.150;2023-01-16T05:33:50;1.30;21.00
774;DHT22;370;48.810;9.150;2023-01-16T05:36:17;1.40;19.90
774;DHT22;370;48.810;9.150;2023-01-16T05:38:44;1.40;19.20
774;DHT22;370;48.810;9.150;2023-01-16T05:41:12;1.40;18.90
774;DHT22;370;48.810;9.150;2023-01-16T05:43:38;1.50;19.20
774;DHT22;370;48.810;9.150;2023-01-16T05:46:07;1.50;18.20
774;DHT22;370;48.810;9.150;2023-01-16T05:48:34;1.60;17.70
774;DHT22;370;48.810;9.150;2023-01-16T05:51:03;1.60;17.70
774;DHT22;370;48.810;9.150;2023-01-16T05:53:30;1.60;17.70
774;DHT22;370;48.810;9.150;2023-01-16T05:55:57;1.60;17.70
774;DHT22;370;48.810;9.150;2023-01-16T05:58:25;1.60;17.70
774;DHT22;370;48.810;9.150;2023-01-16T06:00:51;1.70;17.10
774;DHT22;370;48.810;9.150;2023-01-16T06:03:19;1.70;16.90
774;DHT22;370;48.810;9.150;2023-01-16T06:05:47;1.70;16.30
774;DHT22;370;48.810;9.150;2023-01-16T06:08:14;1.70;15.90
774;DHT22;370;48.810;9.150;2023-01-16T06:10:40;1.80;15.90
774;DHT22;370;48.810;9.150;2023-01-16T06:13:09;1.80;15.90
774;DHT22;370;48.810;9.150;2023-01-16T06:15:36;1.70;15.40
774;DHT22;370;48.810;9.150;2023-01-16T06:18:03;1.70;16.30
774;DHT22;370;48.810;9.150;2023-01-16T06:20:31;1.70;15.80
774;DHT22;370;48.810;9.150;2023-01-16T06:22:58;1.80;15.00
774;DHT22;370;48.810;9.150;2023-01-16T06:25:25;1.80;15.50
774;DHT22;370;48.810;9.150;2023-01-16T06:27:52;1.80;14.90
774;DHT22;370;48.810;9.150;2023-01-16T06:30:19;1.90;14.70
774;DHT22;370;48.810;9.150;2023-01-16T06:32:47;1.90;14.10
774;DHT22;370;48.810;9.150;2023-01-16T06:35:15;2.00;13.30
774;DHT22;370;48.810;9.150;2023-01-16T06:37:43;2.10;12.90
774;DHT22;370;48.810;9.150;2023-01-16T06:40:10;2.10;12.60
774;DHT22;370;48.810;9.150;2023-01-16T06:42:38;2.20;12.00
774;DHT22;370;48.810;9.150;2023-01-16T06:45:06;2.20;11.10
774;DHT22;370;48.810;9.150;2023-01-16T06:47:32;2.30;11.00
774;DHT22;370;48.810;9.150;2023-01-16T06:49:59;2.40;10.60
774;DHT22;370;48.810;9.150;2023-01-16T06:52:26;2.50;9.80
774;DHT22;370;48.810;9.150;2023-01-16T06:54:54;2.50;9.80
774;DHT22;370;48.810;9.150;2023-01-16T06:57:21;2.50;9.80
774;DHT22;370;48.810;9.150;2023-01-16T06:59:48;2.50;9.20
774;DHT22;370;48.810;9.150;2023-01-16T07:02:15;2.60;8.70
774;DHT22;370;48.810;9.150;2023-01-16T07:04:42;2.70;8.10
774;DHT22;370;48.810;9.150;2023-01-16T07:07:09;2.70;8.10
774;DHT22;370;48.810;9.150;2023-01-16T07:09:36;2.80;7.40
774;DHT22;370;48.810;9.150;2023-01-16T07:12:05;2.90;7.60
774;DHT22;370;48.810;9.150;2023-01-16T07:14:31;2.90;6.50
774;DHT22;370;48.810;9.150;2023-01-16T07:17:16;3.00;5.50
774;DHT22;370;48.810;9.150;2023-01-16T07:20:00;3.00;5.20
774;DHT22;370;48.810;9.150;2023-01-16T07:22:44;3.00;5.80
774;DHT22;370;48.810;9.150;2023-01-16T07:25:15;3.00;5.50
774;DHT22;370;48.810;9.150;2023-01-16T07:27:46;3.10;4.00
774;DHT22;370;48.810;9.150;2023-01-16T07:30:14;3.10;3.90
774;DHT22;370;48.810;9.150;2023-01-16T07:32:42;3.10;3.40
774;DHT22;370;48.810;9.150;2023-01-16T07:35:09;3.10;3.30
774;DHT22;370;48.810;9.150;2023-01-16T07:37:36;3.20;3.60
774;DHT22;370;48.810;9.150;2023-01-16T07:40:05;3.30;3.30
774;DHT22;370;48.810;9.150;2023-01-16T07:42:32;3.40;2.60
774;DHT22;370;48.810;9.150;2023-01-16T07:45:00;3.40;2.30
774;DHT22;370;48.810;9.150;2023-01-16T07:47:27;3.40;1.60
774;DHT22;370;48.810;9.150;2023-01-16T07:49:53;3.50;1.60
774;DHT22;370;48.810;9.150;2023-01-16T07:52:22;3.50;1.70
774;DHT22;370;48.810;9.150;2023-01-16T07:54:48;3.50;1.00
774;DHT22;370;48.810;9.150;2023-01-16T07:57:15;3.50;1.00
774;DHT22;370;48.810;9.150;2023-01-16T07:59:42;3.60;1.00
774;DHT22;370;48.810;9.150;2023-01-16T08:02:10;3.60;1.00
774;DHT22;370;48.810;9.150;2023-01-16T08:04:37;3.70;1.00
774;DHT22;370;48.810;9.150;2023-01-16T08:07:04;3.80;1.00
774;DHT22;370;48.810;9.150;2023-01-16T08:09:31;3.70;1.00
774;DHT22;370;48.810;9.150;2023-01-16T08:11:58;3.80;1.00
774;DHT22;370;48.810;9.150;2023-01-16T08:14:24;3.90;1.00
774;DHT22;370;48.810;9.150;2023-01-16T08:16:51;4.00;1.00
774;DHT22;370;48.810;9.150;2023-01-16T08:19:19;4.20;1.00
774;DHT22;370;48.810;9.150;2023-01-16T08:21:46;4.30;1.00
774;DHT22;370;48.810;9.150;2023-01-16T08:24:13;4.30;1.00
774;DHT22;370;48.810;9.150;2023-01-16T08:26:40;4.40;1.00
774;DHT22;370;48.810;9.150;2023-01-16T08:29:09;4.60;1.00
774;DHT22;370;48.810;9.150;2023-01-16T08:31:36;4.90;1.00
774;DHT22;370;48.810;9.150;2023-01-16T08:34:03;5.00;1.00
774;DHT22;370;48.810;9.150;2023-01-16T08:36:31;4.90;1.00
774;DHT22;370;48.810;9.150;2023-01-16T08:38:58;4.90;1.00
774;DHT22;370;48.810;9.150;2023-01-16T08:41:25;4.90;1.00
774;DHT22;370;48.810;9.150;2023-01-16T08:44:10;4.90;1.00
774;DHT22;370;48.810;9.150;2023-01-16T08:46:56;4.90;1.00
774;DHT22;370;48.810;9.150;2023-01-16T08:49:41;4.90;1.00
774;DHT22;370;48.810;9.150;2023-01-16T08:52:27;5.00;1.00
774;DHT22;370;48.810;9.150;2023-01-16T08:54:56;5.10;1.00
774;DHT22;370;48.810;9.150;2023-01-16T08:57:23;5.10;1.00
774;DHT22;370;48.810;9.150;2023-01-16T08:59:50;5.10;1.00
774;DHT22;370;48.810;9.150;2023-01-16T09:02:17;5.10;1.00
774;DHT22;370;48.810;9.150;2023-01-16T09:04:45;5.00;1.00
774;DHT22;370;48.810;9.150;2023-01-16T09:07:13;5.10;1.00
774;DHT22;370;48.810;9.150;2023-01-16T09:09:41;5.10;1.00
774;DHT22;370;48.810;9.150;2023-01-16T09:12:08;5.10;1.00
774;DHT22;370;48.810;9.150;2023-01-16T09:14:52;5.10;1.00
774;DHT22;370;48.810;9.150;2023-01-16T09:17:21;5.10;1.00
774;DHT22;370;48.810;9.150;2023-01-16T09:19:48;5.20;1.00
774;DHT22;370;48.810;9.150;2023-01-16T09:22:15;5.20;1.00
774;DHT22;370;48.810;9.150;2023-01-16T09:24:43;5.20;1.00
774;DHT22;370;48.810;9.150;2023-01-16T09:27:11;5.30;1.00
774;DHT22;370;48.810;9.150;2023-01-16T09:29:39;5.20;1.00
774;DHT22;370;48.810;9.150;2023-01-16T09:32:06;5.20;1.00
774;DHT22;370;48.810;9.150;2023-01-16T09:34:34;5.30;1.00
774;DHT22;370;48.810;9.150;2023-01-16T09:37:01;5.30;1.00
774;DHT22;370;48.810;9.150;2023-01-16T09:39:28;5.40;1.00
774;DHT22;370;48.810;9.150;2023-01-16T09:42:06;5.40;1.00
774;DHT22;370;48.810;9.150;2023-01-16T09:44:53;5.60;1.00
774;DHT22;370;48.810;9.150;2023-01-16T09:47:23;5.70;1.00
774;DHT22;370;48.810;9.150;2023-01-16T09:49:53;5.70;1.00
774;DHT22;370;48.810;9.150;2023-01-16T09:52:24;5.80;1.00
774;DHT22;370;48.810;9.150;2023-01-16T09:55:15;5.90;1.00
774;DHT22;370;48.810;9.150;2023-01-16T09:58:03;6.00;1.00
774;DHT22;370;48.810;9.150;2023-01-16T10:00:50;6.10;1.00
774;DHT22;370;48.810;9.150;2023-01-16T10:03:17;6.10;1.00
774;DHT22;370;48.810;9.150;2023-01-16T10:05:49;6.20;1.00
774;DHT22;370;48.810;9.150;2023-01-16T10:08:26;6.10;1.00
774;DHT22;370;48.810;9.150;2023-01-16T10:11:04;6.10;1.00
774;DHT22;370;48.810;9.150;2023-01-16T10:13:52;6.10;1.00
774;DHT22;370;48.810;9.150;2023-01-16T10:16:29;6.10;1.00
774;DHT22;370;48.810;9.150;2023-01-16T10:19:05;6.10;1.00
774;DHT22;370;48.810;9.150;2023-01-16T10:21:51;6.20;1.00
774;DHT22;370;48.810;9.150;2023-01-16T10:24:32;6.20;1.00
774;DHT22;370;48.810;9.150;2023-01-16T10:27:07;6.20;1.00
774;DHT22;370;48.810;9.150;2023-01-16T10:29:40;6.30;1.00
774;DHT22;370;48.810;9.150;2023-01-16T10:32:11;6.30;1.00
774;DHT22;370;48.810;9.150;2023-01-16T10:34:45;6.30;1.00
774;DHT22;370;48.810;9.150;2023-01-16T10:37:14;6.30;1.00
774;DHT22;370;48.810;9.150;2023-01-16T10:39:41;6.40;1.00
774;DHT22;370;48.810;9.150;2023-01-16T10:42:12;6.40;1.00
774;DHT22;370;48.810;9.150;2023-01-16T10:45:08;6.50;1.00
774;DHT22;370;48.810;9.150;2023-01-16T10:47:53;6.50;1.00
774;DHT22;370;48.810;9.150;2023-01-16T10:50:39;6.50;1.00
774;DHT22;370;48.810;9.150;2023-01-16T10:53:08;6.60;1.00
774;DHT22;370;48.810;9.150;2023-01-16T10:55:39;6.50;1.00
774;DHT22;370;48.810;9.150;2023-01-16T10:58:16;6.50;1.00
774;DHT22;370;48.810;9.150;2023-01-16T11:00:46;6.50;1.00
774;DHT22;370;48.810;9.150;2023-01-16T11:03:19;6.60;1.00
774;DHT22;370;48.810;9.150;2023-01-16T11:05:46;6.70;1.00
774;DHT22;370;48.810;9.150;2023-01-16T11:08:15;6.80;1.00
774;DHT22;370;48.810;9.150;2023-01-16T11:10:45;6.80;1.00
774;DHT22;370;48.810;9.150;2023-01-16T11:13:14;6.80;1.00
774;DHT22;370;48.810;9.150;2023-01-16T11:16:02;6.80;1.00
774;DHT22;370;48.810;9.150;2023-01-16T11:18:46;6.80;1.00
774;DHT22;370;48.810;9.150;2023-01-16T11:21:15;6.80;1.00
774;DHT22;370;48.810;9.150;2023-01-16T11:23:46;7.00;1.00
774;DHT22;370;48.810;9.150;2023-01-16T11:26:14;7.10;1.00
774;DHT22;370;48.810;9.150;2023-01-16T11:28:43;7.20;1.00
774;DHT22;370;48.810;9.150;2023-01-16T11:31:18;7.20;1.00
774;DHT22;370;48.810;9.150;2023-01-16T11:33:48;7.20;1.00
774;DHT22;370;48.810;9.150;2023-01-16T11:36:20;7.10;1.00
774;DHT22;370;48.810;9.150;2023-01-16T11:38:48;7.20;1.00
774;DHT22;370;48.810;9.150;2023-01-16T11:41:18;7.20;1.00
774;DHT22;370;48.810;9.150;2023-01-16T11:43:51;7.30;1.00
774;DHT22;370;48.810;9.150;2023-01-16T11:46:49;7.20;1.00
774;DHT22;370;48.810;9.150;2023-01-16T11:49:18;7.40;1.00
774;DHT22;370;48.810;9.150;2023-01-16T11:51:48;7.40;1.00
774;DHT22;370;48.810;9.150;2023-01-16T11:54:16;7.50;1.00
774;DHT22;370;48.810;9.150;2023-01-16T11:57:08;7.50;1.00
774;DHT22;370;48.810;9.150;2023-01-16T12:02:56;7.60;1.00
774;DHT22;370;48.810;9.150;2023-01-16T12:05:34;7.70;1.00
774;DHT22;370;48.810;9.150;2023-01-16T12:08:40;7.80;1.00
774;DHT22;370;48.810;9.150;2023-01-16T12:11:14;7.70;1.00
774;DHT22;370;48.810;9.150;2023-01-16T12:13:45;7.60;1.00
774;DHT22;370;48.810;9.150;2023-01-16T12:16:39;7.70;1.00
774;DHT22;370;48.810;9.150;2023-01-16T12:19:37;7.80;1.00
774;DHT22;370;48.810;9.150;2023-01-16T12:22:15;7.90;1.00
774;DHT22;370;48.810;9.150;2023-01-16T12:24:46;8.00;1.00
774;DHT22;370;48.810;9.150;2023-01-16T12:27:24;7.80;1.00
774;DHT22;370;48.810;9.150;2023-01-16T12:30:03;7.80;1.00
774;DHT22;370;48.810;9.150;2023-01-16T12:32:45;7.90;1.00
774;DHT22;370;48.810;9.150;2023-01-16T12:35:33;7.90;1.00
774;DHT22;370;48.810;9.150;2023-01-16T12:38:10;8.10;1.00
774;DHT22;370;48.810;9.150;2023-01-16T12:40:59;8.20;1.00
774;DHT22;370;48.810;9.150;2023-01-16T12:43:50;8.40;1.00
774;DHT22;370;48.810;9.150;2023-01-16T12:46:27;8.40;1.00
774;DHT22;370;48.810;9.150;2023-01-16T12:51:56;8.70;1.00
774;DHT22;370;48.810;9.150;2023-01-16T12:54:49;8.80;1.00
774;DHT22;370;48.810;9.150;2023-01-16T13:00:25;8.80;1.00
774;DHT22;370;48.810;9.150;2023-01-16T13:02:58;8.70;1.00
774;DHT22;370;48.810;9.150;2023-01-16T13:05:30;8.50;1.00
774;DHT22;370;48.810;9.150;2023-01-16T13:08:04;8.50;1.00
774;DHT22;370;48.810;9.150;2023-01-16T13:10:37;8.50;1.00
774;DHT22;370;48.810;9.150;2023-01-16T13:13:26;8.50;1.00
774;DHT22;370;48.810;9.150;2023-01-16T13:16:04;8.50;1.00
774;DHT22;370;48.810;9.150;2023-01-16T13:18:37;8.70;1.00
774;DHT22;370;48.810;9.150;2023-01-16T13:21:08;8.60;1.00
774;DHT22;370;48.810;9.150;2023-01-16T13:23:44;8.60;1.00
774;DHT22;370;48.810;9.150;2023-01-16T13:26:15;8.70;1.00
774;DHT22;370;48.810;9.150;2023-01-16T13:28:47;9.00;1.00
774;DHT22;370;48.810;9.150;2023-01-16T13:31:23;8.90;1.00
774;DHT22;370;48.810;9.150;2023-01-16T13:33:56;9.00;1.00
774;DHT22;370;48.810;9.150;2023-01-16T13:39:42;8.90;1.00
774;DHT22;370;48.810;9.150;2023-01-16T13:42:15;8.70;1.00
774;DHT22;370;48.810;9.150;2023-01-16T13:44:45;8.70;1.00
774;DHT22;370;48.810;9.150;2023-01-16T13:47:32;8.70;1.00
774;DHT22;370;48.810;9.150;2023-01-16T13:50:04;8.70;1.00
774;DHT22;370;48.810;9.150;2023-01-16T13:52:31;8.60;1.00
774;DHT22;370;48.810;9.150;2023-01-16T13:55:01;8.50;1.00
774;DHT22;370;48.810;9.150;2023-01-16T13:57:32;8.40;1.00
774;DHT22;370;48.810;9.150;2023-01-16T14:00:00;8.40;1.00
774;DHT22;370;48.810;9.150;2023-01-16T14:02:40;8.20;1.00
774;DHT22;370;48.810;9.150;2023-01-16T14:05:16;8.20;1.00
774;DHT22;370;48.810;9.150;2023-01-16T14:07:50;8.00;1.00
774;DHT22;370;48.810;9.150;2023-01-16T14:10:40;8.00;1.00
774;DHT22;370;48.810;9.150;2023-01-16T14:13:18;7.80;1.00
774;DHT22;370;48.810;9.150;2023-01-16T14:15:49;7.70;1.00
774;DHT22;370;48.810;9.150;2023-01-16T14:21:20;7.60;1.00
774;DHT22;370;48.810;9.150;2023-01-16T14:23:49;7.50;1.00
774;DHT22;370;48.810;9.150;2023-01-16T14:26:38;7.50;1.00
774;DHT22;370;48.810;9.150;2023-01-16T14:29:16;7.40;1.00
774;DHT22;370;48.810;9.150;2023-01-16T14:31:49;7.30;1.00
774;DHT22;370;48.810;9.150;2023-01-16T14:34:20;7.10;1.00
774;DHT22;370;48.810;9.150;2023-01-16T14:36:51;7.00;1.00
774;DHT22;370;48.810;9.150;2023-01-16T14:39:27;6.90;1.00
774;DHT22;370;48.810;9.150;2023-01-16T14:41:55;6.80;1.00
774;DHT22;370;48.810;9.150;2023-01-16T14:44:59;6.80;1.00
774;DHT22;370;48.810;9.150;2023-01-16T14:47:45;6.70;1.00
774;DHT22;370;48.810;9.150;2023-01-16T14:50:43;6.60;1.00
774;DHT22;370;48.810;9.150;2023-01-16T14:53:29;6.60;1.00
774;DHT22;370;48.810;9.150;2023-01-16T14:56:22;6.50;1.00
774;DHT22;370;48.810;9.150;2023-01-16T14:58:54;6.40;1.00
774;DHT22;370;48.810;9.150;2023-01-16T15:01:26;6.40;1.00
774;DHT22;370;48.810;9.150;2023-01-16T15:04:13;6.40;1.00
774;DHT22;370;48.810;9.150;2023-01-16T15:06:44;6.30;1.00
774;DHT22;370;48.810;9.150;2023-01-16T15:09:15;6.30;1.00
774;DHT22;370;48.810;9.150;2023-01-16T15:11:49;6.30;1.00
774;DHT22;370;48.810;9.150;2023-01-16T15:14:18;6.30;1.00
774;DHT22;370;48.810;9.150;2023-01-16T15:17:11;6.30;1.00
774;DHT22;370;48.810;9.150;2023-01-16T15:23:15;6.30;1.00
774;DHT22;370;48.810;9.150;2023-01-16T15:31:47;6.50;1.00
774;DHT22;370;48.810;9.150;2023-01-16T15:34:24;6.60;1.00
774;DHT22;370;48.810;9.150;2023-01-16T15:36:52;6.70;1.00
774;DHT22;370;48.810;9.150;2023-01-16T15:39:22;6.70;1.00
774;DHT22;370;48.810;9.150;2023-01-16T15:41:54;6.70;1.00
774;DHT22;370;48.810;9.150;2023-01-16T15:44:42;6.60;1.00
774;DHT22;370;48.810;9.150;2023-01-16T15:50:30;6.40;1.00
774;DHT22;370;48.810;9.150;2023-01-16T15:52:59;6.20;1.80
774;DHT22;370;48.810;9.150;2023-01-16T15:55:29;6.10;3.30
774;DHT22;370;48.810;9.150;2023-01-16T15:57:59;6.00;4.70
774;DHT22;370;48.810;9.150;2023-01-16T16:00:30;5.80;6.30
774;DHT22;370;48.810;9.150;2023-01-16T16:03:01;5.70;7.80
774;DHT22;370;48.810;9.150;2023-01-16T16:05:29;5.60;9.10
774;DHT22;370;48.810;9.150;2023-01-16T16:07:57;5.50;11.00
774;DHT22;370;48.810;9.150;2023-01-16T16:10:25;5.40;11.50
774;DHT22;370;48.810;9.150;2023-01-16T16:13:14;5.30;13.10
774;DHT22;370;48.810;9.150;2023-01-16T16:15:54;5.30;14.10
774;DHT22;370;48.810;9.150;2023-01-16T16:18:39;5.30;15.30
774;DHT22;370;48.810;9.150;2023-01-16T16:21:06;5.30;15.80
774;DHT22;370;48.810;9.150;2023-01-16T16:23:34;5.20;17.20
774;DHT22;370;48.810;9.150;2023-01-16T16:26:02;5.20;18.60
774;DHT22;370;48.810;9.150;2023-01-16T16:28:34;5.20;19.10
774;DHT22;370;48.810;9.150;2023-01-16T16:31:12;5.10;20.40
774;DHT22;370;48.810;9.150;2023-01-16T16:33:40;5.10;21.90
774;DHT22;370;48.810;9.150;2023-01-16T16:36:14;5.00;24.90
774;DHT22;370;48.810;9.150;2023-01-16T16:38:45;5.00;28.00
774;DHT22;370;48.810;9.150;2023-01-16T16:41:44;4.90;30.20
774;DHT22;370;48.810;9.150;2023-01-16T16:44:37;4.80;35.00
774;DHT22;370;48.810;9.150;2023-01-16T16:47:22;4.80;34.30
774;DHT22;370;48.810;9.150;2023-01-16T16:49:49;4.80;37.40
774;DHT22;370;48.810;9.150;2023-01-16T16:52:30;4.70;36.70
774;DHT22;370;48.810;9.150;2023-01-16T16:54:59;4.60;40.40
774;DHT22;370;48.810;9.150;2023-01-16T16:57:39;4.50;43.10
774;DHT22;370;48.810;9.150;2023-01-16T17:00:14;4.50;44.30
774;DHT22;370;48.810;9.150;2023-01-16T17:02:44;4.40;45.50
774;DHT22;370;48.810;9.150;2023-01-16T17:05:11;4.40;46.00
774;DHT22;370;48.810;9.150;2023-01-16T17:07:40;4.40;46.90
774;DHT22;370;48.810;9.150;2023-01-16T17:10:11;4.30;46.80
774;DHT22;370;48.810;9.150;2023-01-16T17:12:40;4.30;48.70
774;DHT22;370;48.810;9.150;2023-01-16T17:15:08;4.30;48.70
774;DHT22;370;48.810;9.150;2023-01-16T17:17:38;4.30;49.10
774;DHT22;370;48.810;9.150;2023-01-16T17:20:13;4.30;51.00
774;DHT22;370;48.810;9.150;2023-01-16T17:22:40;4.30;49.00
774;DHT22;370;48.810;9.150;2023-01-16T17:25:09;4.30;49.10
774;DHT22;370;48.810;9.150;2023-01-16T17:27:37;4.30;48.40
774;DHT22;370;48.810;9.150;2023-01-16T17:30:11;4.30;48.30
774;DHT22;370;48.810;9.150;2023-01-16T17:32:38;4.30;48.60
774;DHT22;370;48.810;9.150;2023-01-16T17:35:07;4.30;48.70
774;DHT22;370;48.810;9.150;2023-01-16T17:37:36;4.30;48.40
774;DHT22;370;48.810;9.150;2023-01-16T17:40:03;4.30;49.00
774;DHT22;370;48.810;9.150;2023-01-16T17:42:30;4.30;49.00
774;DHT22;370;48.810;9.150;2023-01-16T17:45:24;4.30;49.90
774;DHT22;370;48.810;9.150;2023-01-16T17:48:08;4.20;49.30
774;DHT22;370;48.810;9.150;2023-01-16T17:50:35;4.20;50.50
774;DHT22;370;48.810;9.150;2023-01-16T17:53:03;4.20;49.20
774;DHT22;370;48.810;9.150;2023-01-16T17:55:30;4.20;50.00
774;DHT22;370;48.810;9.150;2023-01-16T17:58:14;4.10;50.50
774;DHT22;370;48.810;9.150;2023-01-16T18:00:42;4.20;50.70
774;DHT22;370;48.810;9.150;2023-01-16T18:03:09;4.10;49.70
774;DHT22;370;48.810;9.150;2023-01-16T18:05:36;4.10;50.30
774;DHT22;370;48.810;9.150;2023-01-16T18:08:04;4.10;51.80
774;DHT22;370;48.810;9.150;2023-01-16T18:10:33;4.20;51.60